Time;durP1;ratioP1;P1;durP2;ratioP2;P2;SDS_P1;SDS_P2;PMS_P1;PMS_P2;Temp;Humidity;BMP_temperature;BMP_pressure;BME280_temperature;BME280_humidity;BME280_pressure;Samples;Min_cycle;Max_cycle;Signal;HPM_P1;HPM_P2
2023/12/09 00:01:13;;;;;;;;;;;;;;;10.68;68.73;98878.53;7350454;19;19918;-61
2023/12/09 00:03:39;;;;;;;;;;;;;;;10.69;68.49;98879.34;7359379;19;19922;-59
2023/12/09 00:06:04;;;;;;;;;;;;;;;10.68;68.48;98878.53;7359593;19;19923;-61
2023/12/09 00:08:30;;;;;;;;;;;;;;;10.69;68.64;98879.34;7363706;19;19928;-61
2023/12/09 00:10:55;;;;;;;;;;;;;;;10.69;68.86;98868.91;7361455;19;19918;-59
2023/12/09 00:13:20;;;;;;;;;;;;;;;10.69;68.78;98863.69;7358539;19;19940;-61
2023/12/09 00:15:45;;;;;;;;;;;;;;;10.69;68.85;98859.31;7355348;19;19915;-59
2023/12/09 00:18:11;;;;;;;;;;;;;;;10.70;68.61;98850.59;7359450;19;19926;-59
2023/12/09 00:20:36;;;;;;;;;;;;;;;10.71;68.86;98852.28;7359861;19;19935;-59
2023/12/09 00:23:01;;;;;;;;;;;;;;;10.70;68.62;98842.75;7357956;19;19929;-60
2023/12/09 00:25:26;;;;;;;;;;;;;;;10.71;69.06;98833.16;7360815;19;19933;-60
2023/12/09 00:27:52;;;;;;;;;;;;;;;10.73;68.76;98828.69;7356525;19;20581;-60
2023/12/09 00:30:17;;;;;;;;;;;;;;;10.72;68.70;98822.63;7359708;19;20333;-59
2023/12/09 00:32:42;;;;;;;;;;;;;;;10.73;68.59;98828.69;7354768;19;19930;-61
2023/12/09 00:35:08;;;;;;;;;;;;;;;10.73;69.04;98828.69;7365312;19;19914;-60
2023/12/09 00:37:33;;;;;;;;;;;;;;;10.74;68.80;98822.53;7363918;19;19922;-59
2023/12/09 00:39:58;;;;;;;;;;;;;;;10.75;68.82;98819.84;7361162;19;20301;-60
2023/12/09 00:42:24;;;;;;;;;;;;;;;10.76;69.15;98816.31;7367725;19;19923;-59
2023/12/09 00:44:49;;;;;;;;;;;;;;;10.76;68.99;98818.94;7367970;19;19922;-60
2023/12/09 00:47:14;;;;;;;;;;;;;;;10.77;68.94;98819.78;7363862;19;20323;-61
2023/12/09 00:49:40;;;;;;;;;;;;;;;10.76;69.29;98813.72;7365194;19;19933;-60
2023/12/09 00:52:05;;;;;;;;;;;;;;;10.77;69.36;98804.09;7360429;19;19923;-60
2023/12/09 00:54:30;;;;;;;;;;;;;;;10.77;69.01;98814.53;7365619;19;19915;-60
2023/12/09 00:56:55;;;;;;;;;;;;;;;10.76;69.15;98807.66;7365218;19;20335;-60
2023/12/09 00:59:21;;;;;;;;;;;;;;;10.76;69.04;98818.94;7365871;19;19997;-59
2023/12/09 01:01:46;;;;;;;;;;;;;;;10.75;69.16;98824.25;7361809;19;19922;-60
2023/12/09 01:04:12;;;;;;;;;;;;;;;10.75;69.61;98816.41;7363371;19;20399;-61
2023/12/09 01:06:37;;;;;;;;;;;;;;;10.75;69.62;98808.56;7362019;19;19930;-59
2023/12/09 01:09:03;;;;;;;;;;;;;;;10.74;69.69;98804.25;7363760;19;20703;-60
2023/12/09 01:11:28;;;;;;;;;;;;;;;10.74;69.68;98789.44;7369094;19;19998;-59
2023/12/09 01:13:53;;;;;;;;;;;;;;;10.75;69.48;98779.84;7366814;19;19915;-61
2023/12/09 01:16:19;;;;;;;;;;;;;;;10.77;69.79;98783.22;7364065;19;19936;-60
2023/12/09 01:18:44;;;;;;;;;;;;;;;10.78;69.69;98785.72;7371714;19;19922;-60
2023/12/09 01:21:09;;;;;;;;;;;;;;;10.79;69.76;98781.34;7370999;19;19915;-60
2023/12/09 01:23:34;;;;;;;;;;;;;;;10.82;70.26;98775.97;7364651;19;19922;-60
2023/12/09 01:26:00;;;;;;;;;;;;;;;10.85;69.89;98775.81;7359814;19;20230;-60
2023/12/09 01:28:25;;;;;;;;;;;;;;;10.88;70.47;98773.03;7353902;19;20328;-60
2023/12/09 01:30:50;;;;;;;;;;;;;;;10.90;70.41;98768.56;7369950;19;19918;-60
2023/12/09 01:33:15;;;;;;;;;;;;;;;10.93;70.15;98778.84;7365808;19;19918;-60
2023/12/09 01:35:41;;;;;;;;;;;;;;;10.95;70.34;98763.94;7364060;19;19911;-60
2023/12/09 01:38:07;;;;;;;;;;;;;;;10.97;70.50;98756.84;7359410;19;19934;-60
2023/12/09 01:40:32;;;;;;;;;;;;;;;10.99;70.44;98761.97;7359825;19;20460;-59
2023/12/09 01:42:57;;;;;;;;;;;;;;;11.00;70.51;98745.38;7360157;19;19942;-61
2023/12/09 01:45:22;;;;;;;;;;;;;;;11.01;70.15;98744.47;7362183;19;19933;-58
2023/12/09 01:47:48;;;;;;;;;;;;;;;11.01;70.16;98739.25;7355185;19;20426;-60
2023/12/09 01:50:14;;;;;;;;;;;;;;;11.01;70.51;98740.09;7363044;19;19943;-60
2023/12/09 01:52:40;;;;;;;;;;;;;;;11.01;70.60;98729.66;7362976;19;20506;-60
2023/12/09 01:55:06;;;;;;;;;;;;;;;11.01;70.33;98719.19;7361885;19;19958;-60
2023/12/09 01:57:31;;;;;;;;;;;;;;;11.00;70.71;98696.63;7363187;19;19918;-59
2023/12/09 01:59:56;;;;;;;;;;;;;;;10.98;70.61;98682.81;7362057;19;19941;-60
2023/12/09 02:02:22;;;;;;;;;;;;;;;10.99;70.67;98679.25;7357304;19;20596;-60
2023/12/09 02:04:48;;;;;;;;;;;;;;;10.99;70.45;98688.84;7362417;19;19935;-60
2023/12/09 02:07:13;;;;;;;;;;;;;;;10.99;70.71;98663.59;7361765;19;20575;-60
2023/12/09 02:09:39;;;;;;;;;;;;;;;10.98;70.51;98656.69;7355067;19;19950;-60
2023/12/09 02:12:04;;;;;;;;;;;;;;;10.98;70.85;98656.69;7359732;19;19918;-60
2023/12/09 02:14:34;;;;;;;;;;;;;;;10.97;70.57;98644.56;7346856;19;20390;-60
2023/12/09 02:17:15;;;;;;;;;;;;;;;10.99;70.96;98634.00;7363600;19;20296;-59
2023/12/09 02:19:41;;;;;;;;;;;;;;;10.98;71.14;98614.91;7359995;19;20789;-61
2023/12/09 02:22:08;;;;;;;;;;;;;;;10.99;71.11;98600.06;7363894;19;19923;-59
2023/12/09 02:24:33;;;;;;;;;;;;;;;10.99;71.24;98593.06;7341725;19;20305;-59
2023/12/09 02:27:03;;;;;;;;;;;;;;;11.00;71.15;98586.94;7362077;19;19935;-60
2023/12/09 02:29:31;;;;;;;;;;;;;;;11.00;70.96;98573.00;7360391;19;19941;-61
2023/12/09 02:32:00;;;;;;;;;;;;;;;11.01;71.29;98561.66;7358587;19;20361;-59
2023/12/09 02:34:25;;;;;;;;;;;;;;;11.01;70.93;98565.13;7365372;19;19948;-61
2023/12/09 02:36:51;;;;;;;;;;;;;;;11.01;71.06;98546.81;7362596;19;19936;-59
2023/12/09 02:39:17;;;;;;;;;;;;;;;11.01;71.32;98541.59;7358447;19;20634;-60
2023/12/09 02:41:44;;;;;;;;;;;;;;;11.01;71.01;98520.72;7363571;19;20032;-60
2023/12/09 02:44:09;;;;;;;;;;;;;;;11.02;71.21;98561.56;7360374;19;19954;-60
2023/12/09 02:46:35;;;;;;;;;;;;;;;11.03;71.22;98550.19;7364138;19;20025;-61
2023/12/09 02:49:01;;;;;;;;;;;;;;;11.03;71.28;98518.00;7362201;19;20509;-60
2023/12/09 02:51:26;;;;;;;;;;;;;;;11.03;71.12;98524.06;7359592;19;19918;-60
2023/12/09 02:53:51;;;;;;;;;;;;;;;11.01;70.97;98510.25;7359517;19;19915;-60
2023/12/09 02:56:16;;;;;;;;;;;;;;;10.99;71.37;98493.84;7362656;19;19917;-59
2023/12/09 02:58:41;;;;;;;;;;;;;;;10.97;71.06;98485.25;7354276;19;19927;-59
2023/12/09 03:01:07;;;;;;;;;;;;;;;10.94;71.19;98481.97;7365078;19;19939;-60
2023/12/09 03:03:32;;;;;;;;;;;;;;;10.90;71.20;98497.00;7363326;19;19919;-59
2023/12/09 03:05:57;;;;;;;;;;;;;;;10.87;71.09;98476.28;7365497;19;20014;-61
2023/12/09 03:08:22;;;;;;;;;;;;;;;10.85;71.47;98462.50;7357325;19;19923;-59
2023/12/09 03:10:48;;;;;;;;;;;;;;;10.83;71.29;98448.69;7372753;19;19923;-60
2023/12/09 03:13:13;;;;;;;;;;;;;;;10.80;71.26;98448.88;7340317;19;19960;-58
2023/12/09 03:15:38;;;;;;;;;;;;;;;10.79;71.33;98439.34;7361865;19;19929;-61
2023/12/09 03:18:03;;;;;;;;;;;;;;;10.77;71.47;98422.94;7359839;19;20576;-60
2023/12/09 03:20:29;;;;;;;;;;;;;;;10.77;71.83;98420.34;7361906;19;19915;-60
2023/12/09 03:22:54;;;;;;;;;;;;;;;10.75;72.05;98403.94;7359768;19;19978;-60
2023/12/09 03:25:19;;;;;;;;;;;;;;;10.74;72.16;98384.81;7362337;19;19950;-60
2023/12/09 03:27:45;;;;;;;;;;;;;;;10.73;72.00;98367.47;7353494;19;20581;-60
2023/12/09 03:30:10;;;;;;;;;;;;;;;10.74;72.14;98368.31;7366198;19;19923;-60
2023/12/09 03:32:37;;;;;;;;;;;;;;;10.74;72.16;98368.31;7371635;19;19911;-60
2023/12/09 03:35:03;;;;;;;;;;;;;;;10.74;72.52;98370.91;7376861;19;19925;-60
2023/12/09 03:37:28;;;;;;;;;;;;;;;10.74;72.49;98353.47;7370783;19;19915;-60
2023/12/09 03:39:53;;;;;;;;;;;;;;;10.76;72.81;98342.97;7371417;19;19950;-60
2023/12/09 03:42:19;;;;;;;;;;;;;;;10.76;72.47;98333.34;7369245;19;19911;-60
2023/12/09 03:44:44;;;;;;;;;;;;;;;10.77;72.86;98308.09;7368455;19;19923;-61
2023/12/09 03:47:09;;;;;;;;;;;;;;;10.78;72.96;98279.28;7366714;19;19927;-61
2023/12/09 03:49:34;;;;;;;;;;;;;;;10.79;72.87;98274.88;7329225;19;19929;-60
2023/12/09 03:52:00;;;;;;;;;;;;;;;10.82;73.04;98266.88;7364732;19;20470;-58
2023/12/09 03:54:25;;;;;;;;;;;;;;;10.82;72.99;98253.81;7371508;19;20382;-60
2023/12/09 03:56:50;;;;;;;;;;;;;;;10.84;72.70;98242.31;7368921;19;19937;-58
2023/12/09 03:59:15;;;;;;;;;;;;;;;10.85;73.01;98232.75;7369584;19;19915;-61
2023/12/09 04:01:47;;;;;;;;;;;;;;;10.88;73.13;98222.09;7353043;19;20335;-61
2023/12/09 04:04:12;;;;;;;;;;;;;;;10.88;73.15;98222.09;7370774;19;20516;-61
2023/12/09 04:06:37;;;;;;;;;;;;;;;10.89;73.20;98214.16;7364090;19;19927;-60
2023/12/09 04:09:03;;;;;;;;;;;;;;;10.92;72.94;98218.38;7367736;19;19932;-60
2023/12/09 04:11:28;;;;;;;;;;;;;;;10.94;73.21;98200.81;7361513;19;19942;-59
2023/12/09 04:13:53;;;;;;;;;;;;;;;10.96;73.11;98198.97;7365355;19;19922;-60
2023/12/09 04:16:19;;;;;;;;;;;;;;;10.98;72.95;98194.47;7369722;19;19926;-60
2023/12/09 04:18:44;;;;;;;;;;;;;;;11.01;73.43;98196.06;7342708;19;19916;-61
2023/12/09 04:21:09;;;;;;;;;;;;;;;11.02;73.37;98177.66;7364119;19;20352;-60
2023/12/09 04:23:35;;;;;;;;;;;;;;;11.05;73.00;98174.88;7371571;19;19934;-59
2023/12/09 04:26:00;;;;;;;;;;;;;;;11.08;73.38;98164.19;7367330;19;19919;-61
2023/12/09 04:28:25;;;;;;;;;;;;;;;11.12;72.97;98157.00;7364441;19;20345;-57
2023/12/09 04:30:50;;;;;;;;;;;;;;;11.17;73.23;98168.84;7363864;19;19922;-60
2023/12/09 04:33:16;;;;;;;;;;;;;;;11.20;73.62;98169.56;7370109;19;19911;-57
2023/12/09 04:35:41;;;;;;;;;;;;;;;11.24;73.16;98139.69;7371206;19;19927;-61
2023/12/09 04:38:06;;;;;;;;;;;;;;;11.27;73.48;98134.28;7368028;19;19911;-59
2023/12/09 04:40:31;;;;;;;;;;;;;;;11.29;73.34;98103.66;7368336;19;19960;-58
2023/12/09 04:42:57;;;;;;;;;;;;;;;11.32;73.67;98086.00;7362190;19;19915;-58
2023/12/09 04:45:22;;;;;;;;;;;;;;;11.30;73.65;98073.97;7365671;19;20366;-61
2023/12/09 04:47:48;;;;;;;;;;;;;;;11.38;73.38;98074.28;7371900;19;19929;-60
2023/12/09 04:50:14;;;;;;;;;;;;;;;11.40;73.84;98057.59;7364828;19;22218;-60
2023/12/09 04:52:39;;;;;;;;;;;;;;;11.44;73.83;98055.56;7369757;19;19926;-59
2023/12/09 04:55:05;;;;;;;;;;;;;;;11.48;74.14;98041.38;7364162;19;20913;-58
2023/12/09 04:57:30;;;;;;;;;;;;;;;11.50;74.27;98036.03;7364800;19;19911;-60
2023/12/09 04:59:56;;;;;;;;;;;;;;;11.53;74.07;98028.81;7370128;19;20657;-59
2023/12/09 05:02:22;;;;;;;;;;;;;;;11.56;74.06;98031.22;7358354;19;19914;-59
2023/12/09 05:04:48;;;;;;;;;;;;;;;11.59;74.07;98017.94;7368350;19;19950;-59
2023/12/09 05:07:14;;;;;;;;;;;;;;;11.62;74.35;98003.81;7362858;19;19939;-59
2023/12/09 05:09:39;;;;;;;;;;;;;;;11.63;74.21;97998.47;7366666;19;19927;-59
2023/12/09 05:12:04;;;;;;;;;;;;;;;11.57;74.54;97975.38;7362534;19;19926;-59
2023/12/09 05:14:30;;;;;;;;;;;;;;;11.69;74.45;97973.69;7364537;19;19930;-60
2023/12/09 05:16:55;;;;;;;;;;;;;;;11.72;74.52;97962.19;7370729;19;19919;-59
2023/12/09 05:19:20;;;;;;;;;;;;;;;11.74;74.74;97944.59;7367017;19;20259;-61
2023/12/09 05:21:46;;;;;;;;;;;;;;;11.75;74.86;97941.03;7374137;19;19993;-58
2023/12/09 05:24:11;;;;;;;;;;;;;;;11.78;74.56;97927.75;7367488;19;19942;-59
2023/12/09 05:26:36;;;;;;;;;;;;;;;11.78;74.80;97918.13;7364989;19;19915;-61
2023/12/09 05:29:03;;;;;;;;;;;;;;;11.81;74.72;97909.22;7367439;19;19927;-60
2023/12/09 05:31:28;;;;;;;;;;;;;;;11.83;74.86;97902.16;7374885;19;19924;-60
2023/12/09 05:33:54;;;;;;;;;;;;;;;11.83;74.65;97891.69;7368266;19;19911;-61
2023/12/09 05:36:19;;;;;;;;;;;;;;;11.84;74.79;97877.66;7365979;19;19922;-60
2023/12/09 05:38:44;;;;;;;;;;;;;;;11.86;75.06;97865.28;7373728;19;20314;-61
2023/12/09 05:41:10;;;;;;;;;;;;;;;11.86;75.15;97863.53;7369617;19;19919;-59
2023/12/09 05:43:36;;;;;;;;;;;;;;;11.86;75.20;97860.06;7348993;19;19949;-60
2023/12/09 05:46:01;;;;;;;;;;;;;;;11.88;75.29;97855.59;7360500;19;20644;-60
2023/12/09 05:48:27;;;;;;;;;;;;;;;11.88;75.08;97855.59;7367787;19;20343;-61
2023/12/09 05:50:52;;;;;;;;;;;;;;;11.89;74.95;97844.16;7362641;19;19922;-61
2023/12/09 05:53:17;;;;;;;;;;;;;;;11.90;75.22;97840.59;7360188;19;20045;-61
2023/12/09 05:55:42;;;;;;;;;;;;;;;11.91;75.21;97832.66;7365157;19;19915;-61
2023/12/09 05:58:08;;;;;;;;;;;;;;;11.91;75.07;97822.19;7367048;19;19934;-61
2023/12/09 06:00:33;;;;;;;;;;;;;;;11.94;75.40;97810.66;7360611;19;20331;-61
2023/12/09 06:02:58;;;;;;;;;;;;;;;11.94;75.08;97808.06;7364688;19;19918;-60
2023/12/09 06:05:24;;;;;;;;;;;;;;;11.95;75.54;97801.88;7362244;19;19956;-60
2023/12/09 06:07:49;;;;;;;;;;;;;;;11.97;75.62;97793.94;7365784;19;20463;-59
2023/12/09 06:10:14;;;;;;;;;;;;;;;11.98;75.73;97799.03;7364147;19;20272;-61
2023/12/09 06:12:40;;;;;;;;;;;;;;;11.93;75.31;97780.25;7365965;19;19960;-60
2023/12/09 06:15:05;;;;;;;;;;;;;;;12.00;75.39;97783.22;7359915;19;19915;-60
2023/12/09 06:17:31;;;;;;;;;;;;;;;12.00;75.71;97770.97;7368726;19;19922;-61
2023/12/09 06:19:56;;;;;;;;;;;;;;;12.02;75.61;97771.72;7366427;19;19918;-59
2023/12/09 06:22:21;;;;;;;;;;;;;;;12.03;75.28;97777.78;7357639;19;20354;-61
2023/12/09 06:24:47;;;;;;;;;;;;;;;12.04;75.14;97775.03;7364068;19;19918;-61
2023/12/09 06:27:12;;;;;;;;;;;;;;;12.05;75.56;97776.69;7360325;19;19926;-59
2023/12/09 06:29:38;;;;;;;;;;;;;;;12.06;75.56;97757.44;7364055;19;19989;-60
2023/12/09 06:32:03;;;;;;;;;;;;;;;12.06;75.91;97769.69;7365399;19;19926;-61
2023/12/09 06:34:29;;;;;;;;;;;;;;;12.09;75.55;97764.22;7365768;19;19929;-60
2023/12/09 06:36:54;;;;;;;;;;;;;;;12.09;75.99;97757.22;7366769;19;19914;-61
2023/12/09 06:39:19;;;;;;;;;;;;;;;12.12;75.85;97757.00;7366286;19;19914;-61
2023/12/09 06:41:44;;;;;;;;;;;;;;;12.07;75.54;97745.22;7364518;19;19935;-61
2023/12/09 06:44:10;;;;;;;;;;;;;;;12.16;75.57;97757.56;7362363;19;19919;-61
2023/12/09 06:46:38;;;;;;;;;;;;;;;12.20;75.67;97754.59;7364539;19;19923;-60
2023/12/09 06:49:05;;;;;;;;;;;;;;;12.25;76.25;97756.03;7361484;19;19990;-61
2023/12/09 06:51:30;;;;;;;;;;;;;;;12.29;76.50;97747.00;7365079;19;20343;-59
2023/12/09 06:53:56;;;;;;;;;;;;;;;12.33;76.29;97743.22;7363455;19;19915;-61
2023/12/09 06:56:21;;;;;;;;;;;;;;;12.36;76.44;97743.78;7365569;19;20041;-61
2023/12/09 06:58:47;;;;;;;;;;;;;;;12.40;76.24;97737.38;7356301;19;19988;-61
2023/12/09 07:01:19;;;;;;;;;;;;;;;12.45;76.83;97737.03;7361032;19;19933;-60
2023/12/09 07:03:44;;;;;;;;;;;;;;;12.50;77.08;97745.34;7365369;19;19919;-61
2023/12/09 07:06:09;;;;;;;;;;;;;;;12.53;76.50;97737.28;7360408;19;20320;-58
2023/12/09 07:08:35;;;;;;;;;;;;;;;12.58;76.64;97742.97;7362688;19;20196;-61
2023/12/09 07:11:00;;;;;;;;;;;;;;;12.62;76.59;97733.06;7360168;19;19932;-58
2023/12/09 07:13:25;;;;;;;;;;;;;;;12.66;76.57;97735.34;7363854;19;19911;-60
2023/12/09 07:15:51;;;;;;;;;;;;;;;12.68;77.01;97733.44;7360599;19;19930;-59
2023/12/09 07:18:16;;;;;;;;;;;;;;;12.71;77.10;97738.44;7363793;19;19974;-61
2023/12/09 07:20:41;;;;;;;;;;;;;;;12.75;76.54;97732.97;7369257;19;20008;-61
2023/12/09 07:23:06;;;;;;;;;;;;;;;12.78;76.64;97732.72;7364940;19;19915;-61
2023/12/09 07:25:32;;;;;;;;;;;;;;;12.79;76.89;97718.69;7364575;19;19923;-61
2023/12/09 07:27:57;;;;;;;;;;;;;;;12.82;77.11;97718.41;7357483;19;19918;-61
2023/12/09 07:30:23;;;;;;;;;;;;;;;12.84;77.20;97713.91;7361754;19;19922;-61
2023/12/09 07:32:48;;;;;;;;;;;;;;;12.87;76.77;97726.75;7352754;19;19915;-59
2023/12/09 07:35:16;;;;;;;;;;;;;;;12.88;77.10;97715.34;7365803;19;20327;-59
2023/12/09 07:37:42;;;;;;;;;;;;;;;12.89;77.31;97715.19;7363298;19;19918;-61
2023/12/09 07:40:11;;;;;;;;;;;;;;;12.92;77.21;97714.09;7360894;19;19986;-61
2023/12/09 07:42:36;;;;;;;;;;;;;;;12.93;77.43;97734.13;7365253;19;19914;-61
2023/12/09 07:45:02;;;;;;;;;;;;;;;12.94;77.35;97733.16;7361791;19;19935;-60
2023/12/09 07:47:27;;;;;;;;;;;;;;;12.96;77.22;97728.63;7363189;19;19922;-61
2023/12/09 07:49:52;;;;;;;;;;;;;;;12.98;77.52;97729.34;7361462;19;19926;-62
2023/12/09 07:52:18;;;;;;;;;;;;;;;12.99;77.03;97736.25;7358185;19;19922;-61
2023/12/09 07:54:44;;;;;;;;;;;;;;;12.98;77.53;97742.44;7361261;19;19919;-60
2023/12/09 07:57:09;;;;;;;;;;;;;;;12.97;77.09;97759.09;7366008;19;19930;-61
2023/12/09 07:59:34;;;;;;;;;;;;;;;12.95;77.34;97751.38;7368516;19;19923;-60
2023/12/09 08:01:59;;;;;;;;;;;;;;;12.93;77.34;97757.72;7348571;19;19927;-61
2023/12/09 08:04:25;;;;;;;;;;;;;;;12.90;76.95;97758.75;7362990;19;19914;-61
2023/12/09 08:06:52;;;;;;;;;;;;;;;12.88;76.92;97762.47;7363076;19;19929;-61
2023/12/09 08:09:17;;;;;;;;;;;;;;;12.83;77.09;97773.31;7359524;19;19925;-60
2023/12/09 08:11:42;;;;;;;;;;;;;;;12.82;77.18;97776.03;7365826;19;19926;-61
2023/12/09 08:14:08;;;;;;;;;;;;;;;12.79;77.50;97786.75;7355017;19;19936;-60
2023/12/09 08:16:33;;;;;;;;;;;;;;;12.77;77.55;97799.94;7363371;19;19927;-61
2023/12/09 08:18:58;;;;;;;;;;;;;;;12.75;77.48;97799.25;7359260;19;20739;-61
2023/12/09 08:21:25;;;;;;;;;;;;;;;12.73;77.30;97788.06;7370133;19;19915;-61
2023/12/09 08:23:50;;;;;;;;;;;;;;;12.70;77.43;97791.75;7372170;19;19927;-61
2023/12/09 08:26:17;;;;;;;;;;;;;;;12.67;77.09;97760.59;7362259;19;19922;-62
2023/12/09 08:28:42;;;;;;;;;;;;;;;12.65;77.41;97780.81;7349677;19;19922;-60
2023/12/09 08:31:08;;;;;;;;;;;;;;;12.64;77.55;97788.78;7367152;19;20632;-61
2023/12/09 08:33:33;;;;;;;;;;;;;;;12.60;77.18;97788.19;7367005;19;19956;-61
2023/12/09 08:35:58;;;;;;;;;;;;;;;12.57;77.58;97787.56;7367480;19;19930;-61
2023/12/09 08:38:24;;;;;;;;;;;;;;;12.54;77.55;97770.34;7366979;19;20343;-61
2023/12/09 08:40:49;;;;;;;;;;;;;;;12.51;77.66;97773.19;7368753;19;20278;-62
2023/12/09 08:43:14;;;;;;;;;;;;;;;12.30;77.17;97748.66;7369396;19;19922;-61
2023/12/09 08:45:39;;;;;;;;;;;;;;;12.41;77.54;97777.47;7368909;19;19967;-61
2023/12/09 08:48:05;;;;;;;;;;;;;;;12.38;77.54;97762.00;7362095;19;19952;-61
2023/12/09 08:50:30;;;;;;;;;;;;;;;12.37;77.88;97755.13;7344781;19;19923;-60
2023/12/09 08:52:56;;;;;;;;;;;;;;;12.33;77.94;97785.91;7360933;19;20724;-59
2023/12/09 08:55:22;;;;;;;;;;;;;;;12.32;77.80;97786.88;7363369;19;19929;-61
2023/12/09 08:57:48;;;;;;;;;;;;;;;12.29;77.72;97815.03;7368965;19;19926;-60
2023/12/09 09:00:15;;;;;;;;;;;;;;;12.26;77.88;97792.53;7359835;19;19919;-61
2023/12/09 09:02:41;;;;;;;;;;;;;;;12.24;78.16;97796.25;7373591;19;19922;-61
2023/12/09 09:05:06;;;;;;;;;;;;;;;12.24;78.54;97772.69;7370516;19;19957;-61
2023/12/09 09:07:36;;;;;;;;;;;;;;;12.23;78.50;97771.03;7367566;19;19932;-61
2023/12/09 09:10:01;;;;;;;;;;;;;;;12.20;78.38;97779.94;7366299;19;19959;-61
2023/12/09 09:12:26;;;;;;;;;;;;;;;12.18;78.38;97803.59;7369741;19;20554;-62
2023/12/09 09:14:52;;;;;;;;;;;;;;;12.17;78.46;97786.25;7370948;19;19918;-61
2023/12/09 09:17:17;;;;;;;;;;;;;;;12.16;78.38;97810.72;7370497;19;19954;-61
2023/12/09 09:19:43;;;;;;;;;;;;;;;12.16;78.44;97820.34;7364104;19;20951;-60
2023/12/09 09:22:08;;;;;;;;;;;;;;;12.14;78.28;97804.78;7357787;19;21227;-61
2023/12/09 09:24:33;;;;;;;;;;;;;;;12.15;78.50;97801.22;7361383;19;19918;-61
2023/12/09 09:26:58;;;;;;;;;;;;;;;12.14;78.58;97812.63;7364825;19;20343;-61
2023/12/09 09:29:24;;;;;;;;;;;;;;;12.13;78.04;97804.91;7365555;19;20359;-62
2023/12/09 09:31:50;;;;;;;;;;;;;;;12.12;78.20;97783.16;7361721;19;19988;-62
2023/12/09 09:34:15;;;;;;;;;;;;;;;12.09;78.17;97819.97;7366484;19;19922;-61
2023/12/09 09:36:40;;;;;;;;;;;;;;;12.10;78.54;97815.59;7364639;19;19926;-62
2023/12/09 09:39:06;;;;;;;;;;;;;;;12.08;78.22;97786.94;7371452;19;21729;-62
2023/12/09 09:41:34;;;;;;;;;;;;;;;12.10;78.08;97837.34;7367000;19;20010;-62
2023/12/09 09:44:19;;;;;;;;;;;;;;;12.08;78.32;97823.56;7362139;19;20258;-61
2023/12/09 09:46:46;;;;;;;;;;;;;;;12.08;78.13;97828.78;7366757;19;19918;-62
2023/12/09 09:49:11;;;;;;;;;;;;;;;12.09;78.08;97876.69;7347783;19;19938;-61
2023/12/09 09:51:37;;;;;;;;;;;;;;;12.09;78.21;97848.75;7361580;19;19922;-62
2023/12/09 09:54:20;;;;;;;;;;;;;;;12.09;78.17;97835.69;7365645;19;19954;-62
2023/12/09 09:56:47;;;;;;;;;;;;;;;12.10;77.85;97853.03;7370723;19;20983;-61
2023/12/09 09:59:12;;;;;;;;;;;;;;;12.09;77.63;97847.94;7362607;19;20806;-61
2023/12/09 10:01:37;;;;;;;;;;;;;;;12.07;77.54;97848.06;7360418;19;19914;-60
2023/12/09 10:04:03;;;;;;;;;;;;;;;12.05;78.06;97865.63;7360090;19;19925;-61
2023/12/09 10:06:29;;;;;;;;;;;;;;;12.04;77.82;97858.72;7360623;19;19945;-62
2023/12/09 10:08:55;;;;;;;;;;;;;;;12.07;77.74;97852.44;7359899;19;19926;-61
2023/12/09 10:11:20;;;;;;;;;;;;;;;12.07;77.60;97860.28;7365674;19;19926;-61
2023/12/09 10:13:45;;;;;;;;;;;;;;;12.08;77.73;97838.41;7360121;19;20358;-62
2023/12/09 10:16:11;;;;;;;;;;;;;;;12.09;77.41;97835.69;7364681;19;19915;-61
2023/12/09 10:18:36;;;;;;;;;;;;;;;12.10;77.54;97834.72;7360701;19;20345;-60
2023/12/09 10:21:01;;;;;;;;;;;;;;;12.12;77.32;97851.16;7368303;19;19919;-61
2023/12/09 10:23:27;;;;;;;;;;;;;;;12.13;77.13;97852.81;7366855;19;19927;-61
2023/12/09 10:25:52;;;;;;;;;;;;;;;12.13;77.31;97847.59;7361465;19;20309;-61
2023/12/09 10:28:18;;;;;;;;;;;;;;;12.14;76.94;97854.47;7371685;19;19935;-61
2023/12/09 10:30:43;;;;;;;;;;;;;;;12.15;77.27;97850.06;7358902;19;19922;-61
2023/12/09 10:33:10;;;;;;;;;;;;;;;12.14;76.85;97854.47;7358606;19;19934;-61
2023/12/09 10:35:35;;;;;;;;;;;;;;;12.16;76.75;97815.94;7364667;19;19923;-61
2023/12/09 10:38:01;;;;;;;;;;;;;;;12.17;76.59;97853.44;7365800;19;19923;-61
2023/12/09 10:40:26;;;;;;;;;;;;;;;12.17;76.46;97843.81;7328967;19;19922;-61
2023/12/09 10:42:52;;;;;;;;;;;;;;;12.17;76.68;97833.34;7360068;19;20335;-61
2023/12/09 10:45:17;;;;;;;;;;;;;;;12.18;76.15;97845.47;7357400;19;19930;-61
2023/12/09 10:47:42;;;;;;;;;;;;;;;12.18;76.35;97858.53;7360582;19;20399;-61
2023/12/09 10:50:09;;;;;;;;;;;;;;;12.18;76.35;97845.47;7362918;19;19990;-62
2023/12/09 10:52:34;;;;;;;;;;;;;;;12.17;76.25;97833.34;7361181;19;19922;-61
2023/12/09 10:55:00;;;;;;;;;;;;;;;12.17;76.05;97837.75;7358375;19;19921;-61
2023/12/09 10:57:25;;;;;;;;;;;;;;;12.17;76.11;97838.56;7363110;19;19918;-59
2023/12/09 10:59:52;;;;;;;;;;;;;;;12.19;76.20;97857.59;7363310;19;19919;-61
2023/12/09 11:02:19;;;;;;;;;;;;;;;12.22;75.70;97834.78;7357763;19;20379;-60
2023/12/09 11:04:45;;;;;;;;;;;;;;;12.22;75.25;97842.63;7362154;19;19918;-60
2023/12/09 11:07:11;;;;;;;;;;;;;;;12.22;75.36;97934.19;7359969;19;20610;-61
2023/12/09 11:09:37;;;;;;;;;;;;;;;12.20;75.08;97833.09;7364652;19;19926;-62
2023/12/09 11:12:03;;;;;;;;;;;;;;;12.19;75.01;97836.66;7358324;19;19922;-61
2023/12/09 11:14:30;;;;;;;;;;;;;;;12.20;74.85;97822.63;7361195;19;19927;-61
2023/12/09 11:16:57;;;;;;;;;;;;;;;12.20;74.63;97848.78;7362465;19;20611;-61
2023/12/09 11:19:23;;;;;;;;;;;;;;;12.22;74.74;97850.47;7362516;19;20323;-60
2023/12/09 11:21:49;;;;;;;;;;;;;;;12.23;74.37;97854.75;7359580;19;19926;-59
2023/12/09 11:24:15;;;;;;;;;;;;;;;12.25;74.36;97853.69;7351806;19;19919;-61
2023/12/09 11:26:47;;;;;;;;;;;;;;;12.25;74.56;97837.16;7363107;19;20010;-62
2023/12/09 11:29:13;;;;;;;;;;;;;;;12.26;74.79;97851.88;7363072;19;20354;-61
2023/12/09 11:31:43;;;;;;;;;;;;;;;12.27;74.45;97816.94;7366535;19;19911;-60
2023/12/09 11:34:09;;;;;;;;;;;;;;;12.31;74.85;97865.47;7367732;19;19926;-62
2023/12/09 11:36:41;;;;;;;;;;;;;;;12.37;74.45;97834.44;7362593;19;19918;-61
2023/12/09 11:39:07;;;;;;;;;;;;;;;12.42;74.33;97873.38;7362833;19;19939;-60
2023/12/09 11:41:40;;;;;;;;;;;;;;;12.47;74.59;97866.00;7364318;19;20588;-60
2023/12/09 11:44:06;;;;;;;;;;;;;;;12.54;73.72;97888.13;7354212;19;19915;-61
2023/12/09 11:46:32;;;;;;;;;;;;;;;12.59;73.44;97880.75;7364545;19;19946;-60
2023/12/09 11:48:57;;;;;;;;;;;;;;;12.63;72.95;97908.38;7359976;19;19903;-60
2023/12/09 11:51:23;;;;;;;;;;;;;;;12.65;73.33;97880.28;7365636;19;19950;-61
2023/12/09 11:53:52;;;;;;;;;;;;;;;12.68;73.03;97900.19;7360565;19;20012;-61
2023/12/09 11:56:17;;;;;;;;;;;;;;;12.70;72.62;97899.09;7367208;19;19923;-59
2023/12/09 11:58:43;;;;;;;;;;;;;;;12.63;72.39;97887.44;7367035;19;19925;-60
2023/12/09 12:01:08;;;;;;;;;;;;;;;12.67;72.41;97901.09;7369663;19;19930;-61
2023/12/09 12:03:34;;;;;;;;;;;;;;;12.64;72.67;97915.28;7367968;19;19919;-60
2023/12/09 12:05:59;;;;;;;;;;;;;;;12.64;72.98;97925.75;7371651;19;19918;-61
2023/12/09 12:08:24;;;;;;;;;;;;;;;12.66;72.49;97896.81;7365173;19;19918;-60
2023/12/09 12:10:50;;;;;;;;;;;;;;;12.63;72.37;97958.13;7368048;19;19953;-61
2023/12/09 12:13:15;;;;;;;;;;;;;;;12.58;72.64;97949.78;7369962;19;19929;-61
2023/12/09 12:15:41;;;;;;;;;;;;;;;12.55;72.66;97959.63;7371407;19;20335;-60
2023/12/09 12:18:06;;;;;;;;;;;;;;;12.51;72.48;97972.09;7371501;19;20331;-61
2023/12/09 12:20:31;;;;;;;;;;;;;;;12.49;72.59;97989.72;7360515;19;19922;-60
2023/12/09 12:22:57;;;;;;;;;;;;;;;12.44;72.83;98013.63;7369923;19;19939;-61
2023/12/09 12:25:24;;;;;;;;;;;;;;;12.43;72.84;98047.75;7363248;19;19930;-61
2023/12/09 12:27:50;;;;;;;;;;;;;;;12.40;72.88;97974.69;7361502;19;19915;-60
2023/12/09 12:30:16;;;;;;;;;;;;;;;12.39;73.01;98017.50;7367225;19;19994;-59
2023/12/09 12:32:42;;;;;;;;;;;;;;;12.37;72.88;98001.94;7371286;19;19919;-61
2023/12/09 12:35:08;;;;;;;;;;;;;;;12.40;73.46;98006.09;7367832;19;19958;-61
2023/12/09 12:37:33;;;;;;;;;;;;;;;12.41;73.62;98047.84;7367114;19;19914;-60
2023/12/09 12:39:58;;;;;;;;;;;;;;;12.50;73.49;98032.44;7369206;19;19923;-60